createdAt,value
2023-01-20T00:03:18.945Z,40.20
2023-01-20T00:08:20.555Z,40.40
2023-01-20T00:13:22.017Z,42.42
2023-01-20T00:18:23.510Z,46.90
2023-01-20T00:23:24.936Z,84.13
2023-01-20T00:28:26.398Z,101.40
2023-01-20T00:33:27.851Z,79.50
2023-01-20T00:38:29.251Z,80.10
2023-01-20T00:43:31.563Z,71.75
2023-01-20T00:48:33.641Z,59.53
2023-01-20T00:53:36.176Z,52.92
2023-01-20T00:58:37.637Z,47.92
2023-01-20T01:03:39.121Z,46.95
2023-01-20T01:08:41.353Z,39.45
2023-01-20T01:13:42.925Z,39.65
2023-01-20T01:18:44.424Z,42.47
2023-01-20T01:23:46.274Z,34.38
2023-01-20T01:28:49.100Z,37.60
2023-01-20T01:33:50.678Z,35.75
2023-01-20T01:38:57.662Z,36.85
2023-01-20T01:44:01.776Z,38.08
2023-01-20T01:49:26.477Z,40.03
2023-01-20T01:54:35.434Z,40.20
2023-01-20T01:59:37.982Z,38.80
2023-01-20T02:04:39.393Z,37.85
2023-01-20T02:09:41.328Z,37.95
2023-01-20T02:14:52.793Z,38.15
2023-01-20T02:20:15.894Z,35.00
2023-01-20T02:25:37.984Z,37.85
2023-01-20T02:30:55.417Z,38.20
2023-01-20T02:36:32.326Z,38.65
2023-01-20T02:41:39.169Z,38.92
2023-01-20T02:46:49.702Z,38.25
2023-01-20T02:52:00.041Z,39.70
2023-01-20T02:57:03.998Z,38.63
2023-01-20T03:02:14.347Z,39.10
2023-01-20T03:07:18.170Z,39.80
2023-01-20T03:12:22.345Z,40.53
2023-01-20T03:17:24.011Z,42.67
2023-01-20T03:22:25.564Z,41.13
2023-01-20T03:27:27.243Z,41.35
2023-01-20T03:32:29.423Z,42.63
2023-01-20T03:37:30.898Z,40.17
2023-01-20T03:42:39.208Z,41.47
2023-01-20T03:47:43.385Z,39.42
2023-01-20T03:52:52.992Z,39.83
2023-01-20T04:02:57.413Z,40.17
2023-01-20T04:08:03.584Z,39.38
2023-01-20T04:13:05.185Z,41.20
2023-01-20T04:18:17.001Z,40.22
2023-01-20T04:23:28.442Z,40.63
2023-01-20T04:28:30.137Z,39.75
2023-01-20T04:33:31.553Z,38.35
2023-01-20T04:38:33.008Z,38.83
2023-01-20T04:43:34.447Z,38.60
2023-01-20T04:48:35.869Z,39.25
2023-01-20T04:53:37.291Z,40.33
2023-01-20T04:58:39.227Z,38.90
2023-01-20T05:03:40.677Z,37.10
2023-01-20T05:08:42.157Z,38.80
2023-01-20T05:13:43.734Z,39.67
2023-01-20T05:18:45.139Z,38.55
2023-01-20T05:23:46.563Z,39.53
2023-01-20T05:28:48.026Z,40.78
2023-01-20T05:33:49.452Z,39.67
2023-01-20T05:38:50.915Z,39.88
2023-01-20T05:43:55.790Z,38.92
2023-01-20T05:48:57.228Z,38.40
2023-01-20T05:53:58.701Z,37.80
2023-01-20T05:59:00.341Z,38.55
2023-01-20T06:04:01.818Z,40.38
2023-01-20T06:09:03.504Z,38.30
2023-01-20T06:14:05.073Z,37.08
2023-01-20T06:19:06.501Z,36.97
2023-01-20T06:24:08.008Z,36.55
2023-01-20T06:29:09.474Z,34.85
2023-01-20T06:34:12.118Z,31.80
2023-01-20T06:39:13.658Z,34.50
2023-01-20T06:44:15.543Z,34.75
2023-01-20T06:49:17.305Z,34.70
2023-01-20T06:54:18.753Z,35.00
2023-01-20T06:59:20.202Z,33.28
2023-01-20T07:04:21.658Z,32.03
2023-01-20T07:09:23.080Z,33.08
2023-01-20T07:14:24.588Z,33.20
2023-01-20T07:19:25.995Z,33.13
2023-01-20T07:24:27.410Z,32.88
2023-01-20T07:29:28.953Z,34.17
2023-01-20T07:34:30.433Z,35.85
2023-01-20T07:39:31.920Z,35.88
2023-01-20T07:44:33.346Z,36.35
2023-01-20T07:49:34.746Z,34.55
2023-01-20T07:54:36.165Z,37.95
2023-01-20T07:59:37.630Z,46.25
2023-01-20T08:04:39.064Z,49.08
2023-01-20T08:09:41.681Z,49.55
2023-01-20T08:14:43.088Z,47.72
2023-01-20T08:19:44.502Z,45.50
2023-01-20T08:24:45.941Z,50.55
2023-01-20T08:29:47.585Z,51.80
2023-01-20T08:34:49.024Z,50.15
2023-01-20T08:39:50.484Z,49.92
2023-01-20T08:44:53.336Z,49.58
2023-01-20T08:49:54.874Z,46.95
2023-01-20T08:54:56.505Z,46.33
2023-01-20T08:59:58.042Z,40.85
2023-01-20T09:04:59.581Z,38.90
2023-01-20T09:10:01.094Z,37.40
2023-01-20T09:15:04.962Z,39.25
2023-01-20T09:20:07.230Z,38.30
2023-01-20T09:25:11.682Z,40.53
2023-01-20T09:30:13.626Z,41.50
2023-01-20T09:35:15.540Z,41.30
2023-01-20T09:40:44.775Z,40.40
2023-01-20T09:46:03.265Z,42.30
2023-01-20T09:51:33.645Z,43.03
2023-01-20T09:56:41.488Z,40.08
2023-01-20T10:01:47.294Z,35.88
2023-01-20T10:06:53.074Z,28.52
2023-01-20T10:12:02.780Z,21.17
2023-01-20T10:17:16.081Z,25.98
2023-01-20T10:22:32.230Z,19.10
2023-01-20T10:27:37.337Z,18.15
2023-01-20T10:32:45.874Z,19.58
2023-01-20T10:37:47.308Z,18.40
2023-01-20T10:42:55.556Z,17.25
2023-01-20T10:48:20.362Z,16.52
2023-01-20T10:53:27.859Z,21.73
2023-01-20T10:58:36.539Z,20.55
2023-01-20T11:03:42.838Z,24.67
2023-01-20T11:08:44.518Z,26.75
2023-01-20T11:13:46.345Z,30.95
2023-01-20T11:19:00.880Z,35.75
2023-01-20T11:24:22.177Z,39.00
2023-01-20T11:29:31.760Z,34.30
2023-01-20T11:34:35.213Z,35.75
2023-01-20T11:39:58.989Z,35.42
2023-01-20T11:45:21.158Z,34.60
2023-01-20T11:50:29.912Z,38.13
2023-01-20T11:55:31.416Z,40.40
2023-01-20T12:00:43.929Z,37.10
2023-01-20T12:06:17.461Z,37.05
2023-01-20T12:11:25.630Z,35.17
2023-01-20T12:16:30.720Z,28.25
2023-01-20T12:21:38.463Z,33.10
2023-01-20T12:26:40.057Z,31.17
2023-01-20T12:31:43.521Z,32.25
2023-01-20T12:37:08.301Z,31.63
2023-01-20T12:42:09.845Z,29.92
2023-01-20T12:47:26.476Z,31.75
2023-01-20T12:52:42.913Z,31.20
2023-01-20T12:57:58.081Z,26.73
2023-01-20T13:03:30.062Z,30.88
2023-01-20T13:08:40.931Z,28.25
2023-01-20T13:14:07.307Z,28.05
2023-01-20T13:19:24.464Z,27.05
2023-01-20T13:24:29.356Z,20.38
2023-01-20T13:29:36.604Z,19.42
2023-01-20T13:34:40.024Z,14.43
2023-01-20T13:39:45.187Z,15.30
2023-01-20T13:45:12.227Z,15.30
2023-01-20T13:50:41.532Z,16.98
2023-01-20T13:55:45.559Z,18.23
2023-01-20T14:00:53.018Z,17.35
2023-01-20T14:05:55.901Z,18.42
2023-01-20T14:11:18.312Z,18.10
2023-01-20T14:16:30.209Z,19.58
2023-01-20T14:21:39.960Z,21.15
2023-01-20T14:26:41.427Z,23.63
2023-01-20T14:31:45.799Z,24.42
2023-01-20T14:36:48.379Z,25.17
2023-01-20T14:41:57.726Z,24.35
2023-01-20T14:47:02.871Z,23.13
2023-01-20T14:52:05.249Z,22.08
2023-01-20T14:57:24.976Z,20.95
2023-01-20T15:02:32.490Z,18.75
2023-01-20T15:07:35.749Z,15.18
2023-01-20T15:12:52.192Z,14.65
2023-01-20T15:18:27.164Z,16.70
2023-01-20T15:23:34.813Z,14.40
2023-01-20T15:28:44.157Z,16.65
2023-01-20T15:33:45.584Z,18.13
2023-01-20T15:38:47.050Z,17.80
2023-01-20T15:43:49.333Z,18.23
2023-01-20T15:48:50.762Z,19.50
2023-01-20T15:53:52.205Z,19.77
2023-01-20T15:58:53.680Z,20.75
2023-01-20T16:03:56.820Z,22.65
2023-01-20T16:09:00.791Z,22.08
2023-01-20T16:14:02.202Z,23.60
2023-01-20T16:19:04.765Z,24.48
2023-01-20T16:24:06.998Z,24.42
2023-01-20T16:29:08.980Z,24.33
2023-01-20T16:34:10.557Z,26.58
2023-01-20T16:39:11.976Z,26.73
2023-01-20T16:44:13.530Z,27.80
2023-01-20T16:49:15.060Z,28.15
2023-01-20T16:54:16.552Z,28.48
2023-01-20T16:59:18.021Z,27.73
2023-01-20T17:04:19.472Z,28.75
2023-01-20T17:09:21.010Z,28.77
2023-01-20T17:14:22.470Z,29.75
2023-01-20T17:19:24.305Z,32.50
2023-01-20T17:24:26.541Z,33.85
2023-01-20T17:29:27.960Z,39.13
2023-01-20T17:34:29.374Z,37.70
2023-01-20T17:39:30.796Z,37.10
2023-01-20T17:44:32.211Z,38.40
2023-01-20T17:49:33.731Z,37.17
2023-01-20T17:54:35.333Z,38.85
2023-01-20T17:59:36.791Z,40.90
2023-01-20T18:04:38.623Z,39.63
2023-01-20T18:09:42.146Z,37.47
2023-01-20T18:14:44.486Z,40.83
2023-01-20T18:19:47.214Z,39.80
2023-01-20T18:24:48.624Z,39.25
2023-01-20T18:29:50.279Z,36.55
2023-01-20T18:34:51.759Z,38.25
2023-01-20T18:39:53.207Z,36.13
2023-01-20T18:44:54.717Z,35.95
2023-01-20T18:49:56.177Z,36.38
2023-01-20T18:54:57.623Z,34.53
2023-01-20T18:59:59.127Z,34.78
2023-01-20T19:05:00.605Z,35.65
2023-01-20T19:10:02.082Z,36.40
2023-01-20T19:15:03.911Z,35.90
2023-01-20T19:20:06.679Z,34.83
2023-01-20T19:25:08.527Z,34.50
2023-01-20T19:30:10.946Z,33.83
2023-01-20T19:35:12.565Z,35.30
2023-01-20T19:40:14.479Z,35.67
2023-01-20T19:45:16.514Z,35.92
2023-01-20T19:50:18.911Z,36.33
2023-01-20T19:55:20.524Z,39.88
2023-01-20T20:00:22.066Z,39.78
2023-01-20T20:05:23.538Z,40.40
2023-01-20T20:10:24.954Z,40.30
2023-01-20T20:15:26.445Z,34.28
2023-01-20T20:20:27.849Z,43.85
2023-01-20T20:25:29.281Z,44.88
2023-01-20T20:30:30.772Z,39.63
2023-01-20T20:35:35.881Z,40.75
2023-01-20T20:40:37.426Z,39.70
2023-01-20T20:45:40.207Z,38.50
2023-01-20T20:50:42.014Z,40.45
2023-01-20T20:55:43.473Z,40.28
2023-01-20T21:00:49.498Z,40.10
2023-01-20T21:05:50.918Z,40.28
2023-01-20T21:10:52.480Z,40.92
2023-01-20T21:16:03.448Z,43.67
2023-01-20T21:21:07.834Z,47.63
2023-01-20T21:26:12.924Z,49.25
2023-01-20T21:31:16.405Z,46.55
2023-01-20T21:36:17.894Z,46.45
2023-01-20T21:41:20.089Z,38.33
2023-01-20T21:46:21.662Z,39.22
2023-01-20T21:51:41.577Z,38.90
2023-01-20T21:56:43.160Z,33.90
2023-01-20T22:01:44.602Z,32.13
2023-01-20T22:06:46.056Z,32.10
2023-01-20T22:11:47.496Z,28.63
2023-01-20T22:16:48.920Z,30.23
2023-01-20T22:21:50.591Z,27.35
2023-01-20T22:26:52.358Z,28.92
2023-01-20T22:31:55.721Z,26.13
2023-01-20T22:36:57.921Z,30.67
2023-01-20T22:41:59.338Z,31.17
2023-01-20T22:47:00.967Z,29.38
2023-01-20T22:52:02.511Z,28.65
2023-01-20T22:57:04.571Z,28.08
2023-01-20T23:02:06.283Z,29.92
2023-01-20T23:07:07.755Z,28.60
2023-01-20T23:12:09.191Z,29.38
2023-01-20T23:17:10.662Z,31.52
2023-01-20T23:22:12.078Z,25.40
2023-01-20T23:27:14.033Z,32.03
2023-01-20T23:32:15.455Z,29.83
2023-01-20T23:37:17.168Z,28.30
2023-01-20T23:42:18.929Z,29.40
2023-01-20T23:47:20.523Z,28.98
2023-01-20T23:52:22.616Z,29.58
2023-01-20T23:57:24.685Z,27.90
